Time;durP1;ratioP1;P1;durP2;ratioP2;P2;SDS_P1;SDS_P2;PMS_P1;PMS_P2;Temp;Humidity;BMP_temperature;BMP_pressure;BME280_temperature;BME280_humidity;BME280_pressure;Samples;Min_cycle;Max_cycle;Signal;HPM_P1;HPM_P2
2022/09/04 00:00:28;;;;;;;2.55;1.70;;;;;;;;;;4943228;28;20231;-60
2022/09/04 00:03:11;;;;;;;2.80;1.88;;;;;;;;;;4943353;28;20745;-61
2022/09/04 00:05:39;;;;;;;2.42;1.80;;;;;;;;;;4945649;28;20262;-59
2022/09/04 00:08:14;;;;;;;3.67;1.60;;;;;;;;;;4948455;28;20234;-62
2022/09/04 00:10:46;;;;;;;2.22;1.30;;;;;;;;;;4939806;29;20694;-61
2022/09/04 00:13:16;;;;;;;1.95;1.40;;;;;;;;;;4940128;29;20245;-62
2022/09/04 00:15:43;;;;;;;2.22;1.63;;;;;;;;;;4940232;28;20346;-61
2022/09/04 00:18:13;;;;;;;2.25;1.70;;;;;;;;;;4938752;28;20239;-61
2022/09/04 00:20:41;;;;;;;2.55;1.60;;;;;;;;;;4940193;28;20239;-61
2022/09/04 00:23:13;;;;;;;3.55;1.50;;;;;;;;;;4942419;28;20262;-62
2022/09/04 00:25:42;;;;;;;3.58;1.58;;;;;;;;;;4944995;28;20261;-61
2022/09/04 00:28:14;;;;;;;1.92;1.65;;;;;;;;;;4934050;28;20239;-62
2022/09/04 00:30:43;;;;;;;2.25;1.88;;;;;;;;;;4939197;28;20255;-61
2022/09/04 00:33:13;;;;;;;2.20;1.38;;;;;;;;;;4942758;28;20706;-61
2022/09/04 00:35:43;;;;;;;3.90;2.08;;;;;;;;;;4937718;28;20243;-63
2022/09/04 00:38:11;;;;;;;1.95;1.65;;;;;;;;;;4939915;28;20231;-61
2022/09/04 00:40:39;;;;;;;4.32;1.45;;;;;;;;;;4944391;28;20253;-61
2022/09/04 00:43:22;;;;;;;3.90;1.50;;;;;;;;;;4947561;28;20737;-61
2022/09/04 00:46:03;;;;;;;2.08;1.88;;;;;;;;;;4947495;29;20753;-61
2022/09/04 00:48:48;;;;;;;1.98;1.67;;;;;;;;;;4943121;28;20235;-61
2022/09/04 00:51:20;;;;;;;5.47;1.50;;;;;;;;;;4945629;28;20717;-61
2022/09/04 00:54:04;;;;;;;1.95;1.75;;;;;;;;;;4947967;28;20733;-60
2022/09/04 00:56:45;;;;;;;3.58;1.83;;;;;;;;;;4947021;28;20616;-60
2022/09/04 00:59:18;;;;;;;3.60;1.55;;;;;;;;;;4941914;28;20232;-60
2022/09/04 01:01:46;;;;;;;2.55;2.35;;;;;;;;;;4949978;28;20322;-62
2022/09/04 01:04:18;;;;;;;2.50;1.70;;;;;;;;;;4947439;28;20239;-63
2022/09/04 01:06:50;;;;;;;3.10;1.65;;;;;;;;;;4939338;28;20373;-60
2022/09/04 01:09:35;;;;;;;4.07;1.80;;;;;;;;;;4939262;28;20231;-60
2022/09/04 01:12:10;;;;;;;2.22;1.67;;;;;;;;;;4946528;28;20235;-61
2022/09/04 01:14:40;;;;;;;3.88;1.42;;;;;;;;;;4941988;28;20245;-61
2022/09/04 01:17:10;;;;;;;2.53;1.38;;;;;;;;;;4944730;28;20242;-62
2022/09/04 01:19:43;;;;;;;1.95;1.70;;;;;;;;;;4946434;28;20231;-61
2022/09/04 01:22:23;;;;;;;2.35;1.13;;;;;;;;;;4943538;28;20268;-61
2022/09/04 01:25:13;;;;;;;1.70;1.60;;;;;;;;;;4941824;28;20615;-62
2022/09/04 01:27:44;;;;;;;2.03;1.65;;;;;;;;;;4928370;28;20587;-60
2022/09/04 01:30:12;;;;;;;2.90;1.70;;;;;;;;;;4949546;28;20242;-61
2022/09/04 01:32:43;;;;;;;3.65;1.85;;;;;;;;;;4948387;28;20232;-62
2022/09/04 01:35:15;;;;;;;2.97;1.65;;;;;;;;;;4943860;28;20250;-62
2022/09/04 01:37:46;;;;;;;1.77;1.63;;;;;;;;;;4941692;28;20231;-61
2022/09/04 01:40:18;;;;;;;2.00;1.42;;;;;;;;;;4942308;28;20239;-63
2022/09/04 01:42:49;;;;;;;2.47;1.40;;;;;;;;;;4944153;28;20236;-62
2022/09/04 01:45:18;;;;;;;1.83;1.30;;;;;;;;;;4950796;28;20339;-62
2022/09/04 01:47:47;;;;;;;3.03;1.40;;;;;;;;;;4943615;28;20883;-62
2022/09/04 01:50:15;;;;;;;4.60;1.48;;;;;;;;;;4944185;28;20237;-63
2022/09/04 01:52:48;;;;;;;6.28;1.52;;;;;;;;;;4937854;28;20245;-59
2022/09/04 01:55:18;;;;;;;2.35;1.30;;;;;;;;;;4933324;28;20234;-65
2022/09/04 01:57:52;;;;;;;2.33;1.40;;;;;;;;;;4924291;28;20244;-65
2022/09/04 02:00:21;;;;;;;1.30;1.20;;;;;;;;;;4935954;28;20330;-64
2022/09/04 02:02:54;;;;;;;2.70;2.08;;;;;;;;;;4934936;28;20603;-66
2022/09/04 02:05:24;;;;;;;2.40;1.50;;;;;;;;;;4943403;28;20250;-65
2022/09/04 02:07:54;;;;;;;1.30;1.20;;;;;;;;;;4934158;28;20231;-64
2022/09/04 02:10:27;;;;;;;1.77;1.42;;;;;;;;;;4946847;29;20255;-65
2022/09/04 02:12:57;;;;;;;2.20;2.00;;;;;;;;;;4936119;28;20825;-65
2022/09/04 02:15:32;;;;;;;1.83;1.25;;;;;;;;;;4932700;29;20263;-64
2022/09/04 02:18:06;;;;;;;3.70;1.17;;;;;;;;;;4937054;29;20239;-63
2022/09/04 02:20:32;;;;;;;0.85;0.85;;;;;;;;;;4934234;29;20235;-64
2022/09/04 02:23:04;;;;;;;2.58;1.30;;;;;;;;;;4937487;29;20231;-64
2022/09/04 02:25:32;;;;;;;2.00;1.50;;;;;;;;;;4945245;28;20239;-65
2022/09/04 02:28:07;;;;;;;0.93;0.93;;;;;;;;;;4939761;28;20236;-66
2022/09/04 02:30:37;;;;;;;2.15;1.30;;;;;;;;;;4942591;29;20234;-61
2022/09/04 02:33:07;;;;;;;4.68;1.58;;;;;;;;;;4941614;28;20257;-64
2022/09/04 02:35:35;;;;;;;1.58;1.42;;;;;;;;;;4942100;29;20669;-62
2022/09/04 02:38:06;;;;;;;1.77;0.93;;;;;;;;;;4936833;29;20232;-63
2022/09/04 02:40:38;;;;;;;1.83;1.40;;;;;;;;;;4940194;29;20243;-62
2022/09/04 02:43:20;;;;;;;1.30;1.20;;;;;;;;;;4939000;29;20242;-64
2022/09/04 02:45:52;;;;;;;1.88;1.13;;;;;;;;;;4939713;28;20278;-64
2022/09/04 02:48:22;;;;;;;6.05;1.52;;;;;;;;;;4941551;28;20302;-64
2022/09/04 02:50:56;;;;;;;1.60;1.27;;;;;;;;;;4940989;29;20235;-63
2022/09/04 02:53:26;;;;;;;2.30;1.20;;;;;;;;;;4939313;29;20238;-63
2022/09/04 02:55:57;;;;;;;1.65;1.00;;;;;;;;;;4946794;29;20231;-64
2022/09/04 02:58:38;;;;;;;2.25;1.05;;;;;;;;;;4937116;29;20240;-63
2022/09/04 03:01:07;;;;;;;1.77;1.27;;;;;;;;;;4930644;28;20235;-62
2022/09/04 03:03:37;;;;;;;2.03;1.23;;;;;;;;;;4941318;28;20702;-63
2022/09/04 03:06:07;;;;;;;1.67;1.30;;;;;;;;;;4936798;28;20271;-63
2022/09/04 03:08:36;;;;;;;1.10;1.02;;;;;;;;;;4932460;29;20240;-64
2022/09/04 03:11:04;;;;;;;2.80;1.30;;;;;;;;;;4947949;29;20243;-63
2022/09/04 03:13:38;;;;;;;2.15;1.17;;;;;;;;;;4944403;28;20232;-63
2022/09/04 03:16:10;;;;;;;1.08;0.98;;;;;;;;;;4943527;28;20244;-64
2022/09/04 03:18:52;;;;;;;1.30;1.10;;;;;;;;;;4943794;28;20240;-63
2022/09/04 03:21:22;;;;;;;1.27;1.15;;;;;;;;;;4942793;28;20231;-62
2022/09/04 03:23:50;;;;;;;1.00;1.00;;;;;;;;;;4945406;28;20608;-64
2022/09/04 03:26:21;;;;;;;3.97;1.45;;;;;;;;;;4946534;28;20262;-64
2022/09/04 03:29:00;;;;;;;3.08;1.35;;;;;;;;;;4939768;28;20230;-65
2022/09/04 03:31:29;;;;;;;1.67;1.23;;;;;;;;;;4942247;28;20297;-63
2022/09/04 03:34:00;;;;;;;1.60;1.35;;;;;;;;;;4944639;28;20238;-64
2022/09/04 03:36:29;;;;;;;2.28;1.35;;;;;;;;;;4935163;29;20244;-63
2022/09/04 03:39:01;;;;;;;2.97;1.40;;;;;;;;;;4935035;28;20228;-64
2022/09/04 03:41:31;;;;;;;2.03;1.42;;;;;;;;;;4938664;28;20246;-64
2022/09/04 03:44:03;;;;;;;2.00;1.15;;;;;;;;;;4940575;28;20857;-63
2022/09/04 03:46:36;;;;;;;1.65;1.15;;;;;;;;;;4942364;28;20244;-64
2022/09/04 03:49:10;;;;;;;1.83;1.50;;;;;;;;;;4945948;28;20293;-66
2022/09/04 03:51:41;;;;;;;1.25;1.00;;;;;;;;;;4943772;28;20237;-65
2022/09/04 03:54:11;;;;;;;3.65;1.00;;;;;;;;;;4938279;28;20232;-67
2022/09/04 03:56:54;;;;;;;1.30;1.20;;;;;;;;;;4949038;28;20318;-64
2022/09/04 03:59:30;;;;;;;1.55;1.45;;;;;;;;;;4942158;28;20249;-64
2022/09/04 04:01:58;;;;;;;1.70;1.20;;;;;;;;;;4944445;28;20319;-64
2022/09/04 04:04:34;;;;;;;1.58;1.15;;;;;;;;;;4941875;28;20611;-64
2022/09/04 04:07:07;;;;;;;1.25;1.17;;;;;;;;;;4939674;28;20235;-66
2022/09/04 04:09:37;;;;;;;2.63;1.60;;;;;;;;;;4942400;28;20634;-63
2022/09/04 04:12:11;;;;;;;4.57;1.40;;;;;;;;;;4940422;28;20676;-63
2022/09/04 04:14:46;;;;;;;1.30;1.20;;;;;;;;;;4946028;28;20242;-63
2022/09/04 04:17:23;;;;;;;1.95;1.38;;;;;;;;;;4946019;28;20227;-67
2022/09/04 04:20:02;;;;;;;1.98;1.13;;;;;;;;;;4945378;28;20243;-63
2022/09/04 04:22:38;;;;;;;1.27;1.08;;;;;;;;;;4948557;28;20337;-63
2022/09/04 04:25:08;;;;;;;1.60;1.35;;;;;;;;;;4940318;28;20238;-64
2022/09/04 04:27:51;;;;;;;1.48;1.33;;;;;;;;;;4943071;28;20241;-63
2022/09/04 04:30:19;;;;;;;1.48;1.33;;;;;;;;;;4943288;28;20228;-64
2022/09/04 04:33:09;;;;;;;2.15;1.33;;;;;;;;;;4945578;28;20241;-64
2022/09/04 04:35:41;;;;;;;1.42;1.20;;;;;;;;;;4932509;29;20242;-63
2022/09/04 04:38:18;;;;;;;1.55;1.10;;;;;;;;;;4948863;28;20239;-64
2022/09/04 04:40:56;;;;;;;4.20;1.30;;;;;;;;;;4937311;28;20239;-64
2022/09/04 04:43:26;;;;;;;1.73;1.63;;;;;;;;;;4941083;28;20672;-62
2022/09/04 04:46:00;;;;;;;1.20;1.10;;;;;;;;;;4949142;28;20331;-64
2022/09/04 04:48:47;;;;;;;2.38;1.52;;;;;;;;;;4943648;28;20244;-63
2022/09/04 04:51:23;;;;;;;5.13;1.30;;;;;;;;;;4946619;28;20235;-65
2022/09/04 04:53:53;;;;;;;1.75;1.15;;;;;;;;;;4941116;28;20237;-64
2022/09/04 04:56:23;;;;;;;3.00;0.90;;;;;;;;;;4954184;28;21029;-64
2022/09/04 04:58:57;;;;;;;1.85;1.38;;;;;;;;;;4954930;28;20231;-64
2022/09/04 05:01:32;;;;;;;1.30;1.20;;;;;;;;;;4949673;28;20762;-63
2022/09/04 05:04:02;;;;;;;2.83;1.20;;;;;;;;;;4948868;28;20884;-63
2022/09/04 05:06:35;;;;;;;1.52;1.23;;;;;;;;;;4946522;28;20334;-64
2022/09/04 05:09:04;;;;;;;1.30;1.20;;;;;;;;;;4943046;28;20255;-63
2022/09/04 05:11:34;;;;;;;1.40;1.17;;;;;;;;;;4945787;28;20765;-62
2022/09/04 05:14:06;;;;;;;4.15;1.33;;;;;;;;;;4944048;28;20242;-64
2022/09/04 05:16:41;;;;;;;1.67;1.17;;;;;;;;;;4941226;28;21295;-63
2022/09/04 05:19:10;;;;;;;1.95;1.73;;;;;;;;;;4938089;28;20235;-63
2022/09/04 05:21:39;;;;;;;1.70;1.30;;;;;;;;;;4948379;28;20804;-63
2022/09/04 05:24:10;;;;;;;2.38;1.23;;;;;;;;;;4942394;28;20246;-62
2022/09/04 05:26:41;;;;;;;2.50;1.13;;;;;;;;;;4945683;28;20733;-63
2022/09/04 05:29:12;;;;;;;1.30;1.13;;;;;;;;;;4948138;28;20243;-62
2022/09/04 05:31:44;;;;;;;1.77;1.17;;;;;;;;;;4945039;28;20836;-62
2022/09/04 05:34:17;;;;;;;1.08;1.08;;;;;;;;;;4945065;28;20247;-64
2022/09/04 05:36:48;;;;;;;1.83;1.25;;;;;;;;;;4942811;28;20247;-62
2022/09/04 05:39:17;;;;;;;1.20;1.10;;;;;;;;;;4944569;28;20235;-64
2022/09/04 05:41:50;;;;;;;2.33;1.40;;;;;;;;;;4930604;28;20232;-63
2022/09/04 05:44:21;;;;;;;1.10;1.00;;;;;;;;;;4945217;28;20830;-63
2022/09/04 05:46:54;;;;;;;1.38;1.27;;;;;;;;;;4945096;28;20247;-64
2022/09/04 05:49:28;;;;;;;1.38;1.10;;;;;;;;;;4945689;28;20235;-65
2022/09/04 05:52:02;;;;;;;2.72;1.42;;;;;;;;;;4945152;28;20617;-65
2022/09/04 05:54:37;;;;;;;2.83;1.50;;;;;;;;;;4937835;28;20265;-64
2022/09/04 05:57:09;;;;;;;6.90;1.38;;;;;;;;;;4941925;28;20262;-62
2022/09/04 05:59:43;;;;;;;1.58;1.48;;;;;;;;;;4942675;28;20239;-62
2022/09/04 06:02:17;;;;;;;1.73;1.50;;;;;;;;;;4943586;28;20231;-64
2022/09/04 06:05:01;;;;;;;1.13;1.02;;;;;;;;;;4945701;28;20238;-64
2022/09/04 06:07:31;;;;;;;1.52;1.00;;;;;;;;;;4933403;28;20242;-62
2022/09/04 06:09:59;;;;;;;1.85;1.60;;;;;;;;;;4940139;28;20236;-62
2022/09/04 06:12:33;;;;;;;2.67;1.25;;;;;;;;;;4945709;29;20611;-61
2022/09/04 06:15:06;;;;;;;1.52;1.38;;;;;;;;;;4938943;28;20705;-62
2022/09/04 06:17:40;;;;;;;1.60;1.50;;;;;;;;;;4944039;28;20227;-61
2022/09/04 06:20:21;;;;;;;2.05;1.75;;;;;;;;;;4947012;28;20595;-61
2022/09/04 06:22:52;;;;;;;2.05;1.45;;;;;;;;;;4941931;28;20231;-64
2022/09/04 06:25:25;;;;;;;1.77;1.55;;;;;;;;;;4944082;28;20277;-65
2022/09/04 06:28:05;;;;;;;1.92;1.58;;;;;;;;;;4929064;29;20244;-64
2022/09/04 06:30:35;;;;;;;2.40;1.95;;;;;;;;;;4946642;29;20242;-65
2022/09/04 06:33:10;;;;;;;8.85;1.67;;;;;;;;;;4947948;28;20663;-65
2022/09/04 06:35:45;;;;;;;3.75;1.70;;;;;;;;;;4945568;28;20313;-65
2022/09/04 06:38:17;;;;;;;2.25;1.42;;;;;;;;;;4940735;28;20696;-65
2022/09/04 06:40:49;;;;;;;3.28;1.90;;;;;;;;;;4945969;28;20227;-64
2022/09/04 06:43:19;;;;;;;2.70;1.67;;;;;;;;;;4944347;28;20238;-64
2022/09/04 06:45:50;;;;;;;1.70;1.60;;;;;;;;;;4944125;28;20243;-63
2022/09/04 06:48:28;;;;;;;4.50;2.13;;;;;;;;;;4948074;28;20274;-63
2022/09/04 06:51:00;;;;;;;2.08;1.90;;;;;;;;;;4936466;28;20698;-64
2022/09/04 06:53:34;;;;;;;2.20;2.00;;;;;;;;;;4935010;28;20240;-63
2022/09/04 06:56:10;;;;;;;2.58;2.35;;;;;;;;;;4943213;28;20728;-62
2022/09/04 06:58:57;;;;;;;7.55;2.35;;;;;;;;;;4941940;28;20227;-61
2022/09/04 07:01:28;;;;;;;1.95;1.83;;;;;;;;;;4929374;28;20244;-62
2022/09/04 07:04:02;;;;;;;3.63;2.22;;;;;;;;;;4938560;29;20239;-62
2022/09/04 07:06:32;;;;;;;3.92;2.08;;;;;;;;;;4946213;28;20239;-61
2022/09/04 07:09:05;;;;;;;3.13;2.08;;;;;;;;;;4946618;28;20235;-63
2022/09/04 07:11:38;;;;;;;2.30;2.10;;;;;;;;;;4941711;28;20330;-62
2022/09/04 07:14:16;;;;;;;1.73;1.63;;;;;;;;;;4941881;29;20239;-63
2022/09/04 07:16:45;;;;;;;3.25;1.75;;;;;;;;;;4930223;28;20232;-62
2022/09/04 07:19:31;;;;;;;2.42;2.15;;;;;;;;;;4943181;29;20787;-60
2022/09/04 07:22:05;;;;;;;2.67;2.20;;;;;;;;;;4942058;28;20252;-62
2022/09/04 07:24:44;;;;;;;2.08;1.80;;;;;;;;;;4946086;28;20238;-63
2022/09/04 07:27:14;;;;;;;2.65;2.45;;;;;;;;;;4941316;28;20234;-62
2022/09/04 07:29:45;;;;;;;3.30;2.53;;;;;;;;;;4937131;28;20230;-61
2022/09/04 07:32:17;;;;;;;4.00;1.90;;;;;;;;;;4947394;28;20231;-63
2022/09/04 07:34:49;;;;;;;2.45;1.95;;;;;;;;;;4939908;28;20234;-62
2022/09/04 07:37:23;;;;;;;6.15;2.20;;;;;;;;;;4944225;28;20901;-61
2022/09/04 07:39:53;;;;;;;2.38;2.17;;;;;;;;;;4942091;28;20279;-61
2022/09/04 07:42:24;;;;;;;4.75;2.53;;;;;;;;;;4943622;28;20243;-62
2022/09/04 07:44:54;;;;;;;2.17;1.98;;;;;;;;;;4943200;29;20246;-62
2022/09/04 07:47:26;;;;;;;4.40;2.30;;;;;;;;;;4945566;28;20274;-62
2022/09/04 07:49:58;;;;;;;2.85;2.47;;;;;;;;;;4944430;29;20255;-61
2022/09/04 07:52:40;;;;;;;3.55;2.53;;;;;;;;;;4944113;28;20581;-63
2022/09/04 07:55:17;;;;;;;2.53;2.13;;;;;;;;;;4940252;28;20641;-62
2022/09/04 07:58:01;;;;;;;3.58;2.13;;;;;;;;;;4943753;29;20226;-60
2022/09/04 08:00:29;;;;;;;2.65;2.45;;;;;;;;;;4945593;28;20325;-63
2022/09/04 08:03:00;;;;;;;3.63;1.98;;;;;;;;;;4947547;29;20231;-62
2022/09/04 08:05:31;;;;;;;2.92;2.38;;;;;;;;;;4945878;28;20235;-62
2022/09/04 08:08:13;;;;;;;9.27;3.28;;;;;;;;;;4945797;28;20604;-62
2022/09/04 08:10:43;;;;;;;6.00;4.07;;;;;;;;;;4944602;29;20252;-62
2022/09/04 08:13:18;;;;;;;2.60;2.40;;;;;;;;;;4946421;28;20235;-61
2022/09/04 08:15:51;;;;;;;3.22;2.72;;;;;;;;;;4919562;29;20248;-65
2022/09/04 08:18:35;;;;;;;3.15;2.85;;;;;;;;;;4921351;29;20243;-63
2022/09/04 08:21:11;;;;;;;3.25;2.63;;;;;;;;;;4932007;29;20232;-63
2022/09/04 08:23:47;;;;;;;3.33;2.30;;;;;;;;;;4927262;29;20248;-61
2022/09/04 08:26:19;;;;;;;4.15;2.70;;;;;;;;;;4923731;29;20238;-67
2022/09/04 08:29:00;;;;;;;2.92;2.72;;;;;;;;;;4917396;29;20236;-63
2022/09/04 08:31:29;;;;;;;2.60;2.40;;;;;;;;;;4918915;29;20823;-61
2022/09/04 08:34:14;;;;;;;2.80;2.45;;;;;;;;;;4925169;29;20246;-62
2022/09/04 08:36:45;;;;;;;3.13;2.25;;;;;;;;;;4942161;28;20231;-61
2022/09/04 08:39:16;;;;;;;2.50;2.30;;;;;;;;;;4940158;28;20239;-62
2022/09/04 08:42:06;;;;;;;3.90;2.80;;;;;;;;;;4942030;28;20234;-61
2022/09/04 08:45:05;;;;;;;2.33;2.15;;;;;;;;;;4943877;28;20235;-63
2022/09/04 08:47:51;;;;;;;2.35;2.15;;;;;;;;;;4945154;28;20234;-62
2022/09/04 08:50:29;;;;;;;3.50;2.60;;;;;;;;;;4945013;28;20235;-61
2022/09/04 08:53:10;;;;;;;2.78;2.58;;;;;;;;;;4939868;29;20227;-63
2022/09/04 08:55:54;;;;;;;4.20;2.83;;;;;;;;;;4944256;28;20235;-61
2022/09/04 08:58:47;;;;;;;4.40;2.50;;;;;;;;;;4938873;28;20239;-60
2022/09/04 09:01:31;;;;;;;14.35;3.58;;;;;;;;;;4943032;28;20239;-62
2022/09/04 09:04:07;;;;;;;2.78;2.45;;;;;;;;;;4927511;28;20794;-62
2022/09/04 09:06:48;;;;;;;4.70;2.40;;;;;;;;;;4946914;28;25361;-63
2022/09/04 09:09:50;;;;;;;3.45;2.55;;;;;;;;;;4944335;29;20233;-60
2022/09/04 09:12:24;;;;;;;2.40;2.20;;;;;;;;;;4940231;29;20231;-59
2022/09/04 09:15:00;;;;;;;3.13;2.38;;;;;;;;;;4944269;28;20238;-60
2022/09/04 09:17:34;;;;;;;2.53;2.20;;;;;;;;;;4937966;28;20298;-60
2022/09/04 09:20:11;;;;;;;3.50;2.55;;;;;;;;;;4935154;29;20239;-60
2022/09/04 09:22:38;;;;;;;2.53;2.30;;;;;;;;;;4946387;29;20246;-59
2022/09/04 09:25:19;;;;;;;2.20;2.00;;;;;;;;;;4938639;29;20247;-59
2022/09/04 09:28:18;;;;;;;3.35;1.95;;;;;;;;;;4948125;28;20238;-60
2022/09/04 09:31:01;;;;;;;4.82;3.25;;;;;;;;;;4945489;29;20237;-61
2022/09/04 09:33:45;;;;;;;1.98;1.77;;;;;;;;;;4946391;28;20231;-58
2022/09/04 09:36:33;;;;;;;3.72;2.15;;;;;;;;;;4909431;29;20231;-59
2022/09/04 09:39:06;;;;;;;2.10;1.90;;;;;;;;;;4945077;28;20709;-59
2022/09/04 09:41:52;;;;;;;2.72;2.03;;;;;;;;;;4940993;28;20246;-59
2022/09/04 09:44:48;;;;;;;1.70;1.60;;;;;;;;;;4927264;28;20315;-59
2022/09/04 09:47:29;;;;;;;3.53;2.17;;;;;;;;;;4931848;28;20322;-62
2022/09/04 09:53:02;;;;;;;2.35;2.15;;;;;;;;;;5040913;27;20584;-59
2022/09/04 09:55:49;;;;;;;4.68;2.40;;;;;;;;;;5015261;28;20236;-60
2022/09/04 09:58:34;;;;;;;3.42;1.77;;;;;;;;;;5031111;28;20226;-59
2022/09/04 10:01:05;;;;;;;2.83;2.28;;;;;;;;;;5031497;28;20240;-59
2022/09/04 10:03:56;;;;;;;2.00;1.73;;;;;;;;;;5028411;28;20504;-59
2022/09/04 10:06:43;;;;;;;2.30;2.10;;;;;;;;;;5034610;28;20244;-59
2022/09/04 10:09:36;;;;;;;3.67;2.10;;;;;;;;;;5034427;28;20290;-60
2022/09/04 10:12:25;;;;;;;2.35;2.15;;;;;;;;;;5034859;28;20231;-60
2022/09/04 10:15:02;;;;;;;4.47;1.92;;;;;;;;;;5040611;28;20315;-59
2022/09/04 10:17:53;;;;;;;2.83;2.28;;;;;;;;;;5037580;28;20236;-59
2022/09/04 10:20:34;;;;;;;4.20;1.88;;;;;;;;;;5033259;28;20231;-59
2022/09/04 10:23:15;;;;;;;2.08;1.90;;;;;;;;;;5029027;28;20242;-60
2022/09/04 10:25:50;;;;;;;1.88;1.77;;;;;;;;;;5021795;28;20252;-59
2022/09/04 10:28:34;;;;;;;2.30;2.05;;;;;;;;;;5035623;28;20247;-60
2022/09/04 10:31:19;;;;;;;2.72;2.17;;;;;;;;;;5021939;28;20324;-61
2022/09/04 10:33:58;;;;;;;3.90;2.03;;;;;;;;;;5002771;28;20248;-59
2022/09/04 10:36:28;;;;;;;2.40;2.05;;;;;;;;;;5027584;28;20239;-59
2022/09/04 10:42:01;;;;;;;2.22;2.10;;;;;;;;;;5015159;28;20599;-60
2022/09/04 10:44:44;;;;;;;2.42;2.22;;;;;;;;;;5034110;28;20235;-59
2022/09/04 10:47:18;;;;;;;2.90;2.20;;;;;;;;;;5036858;28;20306;-58
2022/09/04 10:49:52;;;;;;;5.10;2.13;;;;;;;;;;5037206;28;20637;-59
2022/09/04 10:52:39;;;;;;;2.25;2.05;;;;;;;;;;5036422;28;20230;-59
2022/09/04 10:55:21;;;;;;;3.15;1.90;;;;;;;;;;5009990;28;20243;-59
2022/09/04 10:57:53;;;;;;;2.47;2.03;;;;;;;;;;5036278;28;20239;-58
2022/09/04 11:00:20;;;;;;;2.50;2.05;;;;;;;;;;5027913;28;20244;-59
2022/09/04 11:03:13;;;;;;;3.10;2.10;;;;;;;;;;5028617;28;20244;-59
2022/09/04 11:05:52;;;;;;;2.17;1.98;;;;;;;;;;5004938;28;20893;-57
2022/09/04 11:08:34;;;;;;;2.42;2.13;;;;;;;;;;5022644;28;20312;-58
2022/09/04 11:11:09;;;;;;;3.55;2.22;;;;;;;;;;5019196;28;20250;-59
2022/09/04 11:13:57;;;;;;;2.50;2.30;;;;;;;;;;5018810;28;20236;-59
2022/09/04 11:16:49;;;;;;;2.33;2.13;;;;;;;;;;5015938;28;20264;-59
2022/09/04 11:19:32;;;;;;;2.47;2.28;;;;;;;;;;5018259;28;20235;-58
2022/09/04 11:22:20;;;;;;;3.65;2.38;;;;;;;;;;5005985;28;20261;-59
2022/09/04 11:25:06;;;;;;;2.80;2.10;;;;;;;;;;5019411;28;20255;-59
2022/09/04 11:27:48;;;;;;;2.90;2.28;;;;;;;;;;5017638;28;20224;-60
2022/09/04 11:30:16;;;;;;;2.22;2.03;;;;;;;;;;5003902;28;20248;-59
2022/09/04 11:33:00;;;;;;;2.53;2.30;;;;;;;;;;5021338;28;20245;-59
2022/09/04 11:35:41;;;;;;;2.78;2.42;;;;;;;;;;5017230;28;20604;-59
2022/09/04 11:38:19;;;;;;;3.10;2.47;;;;;;;;;;5011409;28;20237;-59
2022/09/04 11:41:04;;;;;;;2.90;2.28;;;;;;;;;;5018457;28;20232;-59
2022/09/04 11:43:41;;;;;;;3.50;2.08;;;;;;;;;;5021855;28;20235;-59
2022/09/04 11:46:16;;;;;;;2.40;2.20;;;;;;;;;;5020807;28;20609;-58
2022/09/04 11:48:53;;;;;;;2.28;2.13;;;;;;;;;;5019875;28;20225;-59
2022/09/04 11:51:43;;;;;;;5.15;2.17;;;;;;;;;;5018641;28;20241;-59
2022/09/04 11:54:29;;;;;;;2.15;1.90;;;;;;;;;;5018366;28;20378;-58
2022/09/04 11:57:01;;;;;;;2.08;1.98;;;;;;;;;;5017516;28;20247;-59
2022/09/04 11:59:41;;;;;;;3.55;2.17;;;;;;;;;;5019142;28;20233;-58
2022/09/04 12:02:20;;;;;;;2.95;2.55;;;;;;;;;;5021475;28;20241;-60
2022/09/04 12:04:54;;;;;;;8.52;2.97;;;;;;;;;;5015411;28;20255;-58
2022/09/04 12:07:37;;;;;;;4.05;2.50;;;;;;;;;;5022661;28;20228;-58
2022/09/04 12:10:22;;;;;;;4.25;2.53;;;;;;;;;;5023169;28;20227;-58
2022/09/04 12:13:16;;;;;;;4.47;2.80;;;;;;;;;;5020264;28;20247;-59
2022/09/04 12:15:54;;;;;;;3.05;2.40;;;;;;;;;;5026514;28;20251;-59
2022/09/04 12:18:43;;;;;;;3.15;2.25;;;;;;;;;;5016611;28;20239;-59
2022/09/04 12:21:34;;;;;;;7.53;3.03;;;;;;;;;;5015831;28;20722;-60
2022/09/04 12:24:18;;;;;;;5.57;3.00;;;;;;;;;;5021791;28;20221;-60
2022/09/04 12:26:55;;;;;;;3.88;2.28;;;;;;;;;;4994397;28;20248;-58
2022/09/04 12:29:38;;;;;;;2.85;2.50;;;;;;;;;;5020649;28;20232;-59
2022/09/04 12:32:15;;;;;;;7.22;2.50;;;;;;;;;;5020114;28;20293;-59
2022/09/04 12:34:53;;;;;;;3.45;2.38;;;;;;;;;;5019512;28;20232;-58
2022/09/04 12:37:27;;;;;;;3.05;2.45;;;;;;;;;;5019248;28;20653;-58
2022/09/04 12:40:15;;;;;;;6.20;2.63;;;;;;;;;;5018835;28;20240;-59
2022/09/04 12:42:46;;;;;;;5.50;2.75;;;;;;;;;;4998191;28;20699;-59
2022/09/04 12:45:20;;;;;;;2.38;2.20;;;;;;;;;;5017732;28;20252;-60
2022/09/04 12:47:57;;;;;;;2.35;2.15;;;;;;;;;;5021526;28;20643;-58
2022/09/04 12:50:29;;;;;;;3.30;2.35;;;;;;;;;;5020429;28;20263;-59
2022/09/04 12:53:03;;;;;;;2.33;2.13;;;;;;;;;;5021280;28;20238;-59
2022/09/04 12:55:34;;;;;;;2.80;2.35;;;;;;;;;;5018843;28;20233;-59
2022/09/04 12:58:06;;;;;;;2.63;2.08;;;;;;;;;;5018516;28;20319;-58
2022/09/04 13:00:40;;;;;;;3.03;2.83;;;;;;;;;;5018711;28;20228;-59
2022/09/04 13:03:13;;;;;;;2.40;2.20;;;;;;;;;;5019240;28;20316;-59
2022/09/04 13:05:49;;;;;;;3.85;2.80;;;;;;;;;;5020451;28;20251;-59
2022/09/04 13:08:18;;;;;;;2.40;2.20;;;;;;;;;;5016594;28;20236;-60
2022/09/04 13:10:50;;;;;;;2.88;2.60;;;;;;;;;;5018569;28;20732;-57
2022/09/04 13:13:19;;;;;;;3.15;2.22;;;;;;;;;;5020260;28;20314;-58
2022/09/04 13:15:52;;;;;;;2.85;2.55;;;;;;;;;;5017300;28;20593;-55
2022/09/04 13:18:25;;;;;;;3.42;2.55;;;;;;;;;;5021607;28;20236;-55
2022/09/04 13:20:56;;;;;;;3.63;2.72;;;;;;;;;;5020078;28;20244;-57
2022/09/04 13:23:32;;;;;;;2.72;2.53;;;;;;;;;;5022248;28;20237;-57
2022/09/04 13:26:07;;;;;;;3.03;2.40;;;;;;;;;;5021087;28;20251;-58
2022/09/04 13:28:38;;;;;;;3.40;2.78;;;;;;;;;;5020583;28;20240;-57
2022/09/04 13:31:19;;;;;;;4.18;3.35;;;;;;;;;;5020060;28;20228;-57
2022/09/04 13:33:52;;;;;;;5.45;2.45;;;;;;;;;;5016127;28;20477;-58
2022/09/04 13:36:27;;;;;;;4.35;1.98;;;;;;;;;;5021340;28;20251;-58
2022/09/04 13:39:11;;;;;;;2.97;2.72;;;;;;;;;;5021787;28;20282;-56
2022/09/04 13:41:49;;;;;;;3.50;2.15;;;;;;;;;;5020783;28;20240;-57
2022/09/04 13:44:49;;;;;;;1.95;1.85;;;;;;;;;;5014732;28;20313;-57
2022/09/04 13:47:20;;;;;;;3.15;2.70;;;;;;;;;;4934387;28;20245;-59
2022/09/04 13:49:49;;;;;;;2.75;2.30;;;;;;;;;;4942129;28;20239;-58
2022/09/04 13:52:18;;;;;;;3.45;2.13;;;;;;;;;;4977093;28;20220;-57
2022/09/04 13:54:46;;;;;;;3.33;2.67;;;;;;;;;;5017174;28;20232;-57
2022/09/04 13:57:15;;;;;;;6.15;2.20;;;;;;;;;;5020748;28;20229;-56
2022/09/04 13:59:43;;;;;;;2.58;2.17;;;;;;;;;;5016439;28;20595;-58
2022/09/04 14:02:12;;;;;;;5.15;3.00;;;;;;;;;;5019114;28;20240;-56
2022/09/04 14:04:42;;;;;;;3.85;3.42;;;;;;;;;;5017569;28;20244;-58
2022/09/04 14:07:13;;;;;;;4.22;3.70;;;;;;;;;;5013379;28;20268;-56
2022/09/04 14:09:42;;;;;;;3.03;2.80;;;;;;;;;;5018776;28;20232;-58
2022/09/04 14:12:19;;;;;;;3.42;3.13;;;;;;;;;;5016475;28;20689;-58
2022/09/04 14:14:58;;;;;;;4.50;4.05;;;;;;;;;;5020588;28;20251;-57
2022/09/04 14:17:27;;;;;;;4.47;3.35;;;;;;;;;;5012873;28;20233;-59
2022/09/04 14:19:59;;;;;;;4.65;3.58;;;;;;;;;;5018388;28;20233;-58
2022/09/04 14:22:34;;;;;;;3.38;3.10;;;;;;;;;;5023646;28;20237;-57
2022/09/04 14:25:05;;;;;;;3.83;2.92;;;;;;;;;;5019867;28;20248;-58
2022/09/04 14:27:35;;;;;;;3.28;2.40;;;;;;;;;;5022140;28;20232;-58
2022/09/04 14:30:05;;;;;;;2.75;2.53;;;;;;;;;;5019969;28;20319;-58
2022/09/04 14:32:39;;;;;;;3.40;3.08;;;;;;;;;;5015675;28;20241;-59
2022/09/04 14:35:12;;;;;;;3.30;3.00;;;;;;;;;;5011674;28;20248;-58
2022/09/04 14:37:58;;;;;;;2.70;2.47;;;;;;;;;;5020257;28;20239;-59
2022/09/04 14:40:29;;;;;;;2.72;2.17;;;;;;;;;;5026209;28;20236;-57
2022/09/04 14:43:01;;;;;;;2.50;2.30;;;;;;;;;;5027583;28;20237;-58
2022/09/04 14:45:34;;;;;;;4.90;2.72;;;;;;;;;;5021320;28;20243;-56
2022/09/04 14:48:04;;;;;;;4.22;3.80;;;;;;;;;;5021168;28;20232;-56
2022/09/04 14:50:33;;;;;;;3.20;2.90;;;;;;;;;;5019267;28;20240;-58
2022/09/04 14:53:02;;;;;;;2.92;2.70;;;;;;;;;;5021624;28;20241;-60
2022/09/04 14:55:29;;;;;;;4.25;3.40;;;;;;;;;;5021741;28;20243;-57
2022/09/04 14:57:58;;;;;;;3.45;2.35;;;;;;;;;;5018331;28;20229;-57
2022/09/04 15:00:24;;;;;;;2.78;2.58;;;;;;;;;;5017901;28;20919;-57
2022/09/04 15:02:56;;;;;;;2.45;2.25;;;;;;;;;;5022087;28;20232;-58
2022/09/04 15:05:24;;;;;;;2.60;2.40;;;;;;;;;;5023161;28;20247;-57
2022/09/04 15:07:55;;;;;;;3.17;2.67;;;;;;;;;;5020319;28;20291;-58
2022/09/04 15:10:27;;;;;;;3.75;2.58;;;;;;;;;;5025747;28;20298;-58
2022/09/04 15:12:59;;;;;;;3.05;2.85;;;;;;;;;;5026003;28;20813;-59
2022/09/04 15:15:30;;;;;;;5.47;3.50;;;;;;;;;;5022671;28;20256;-58
2022/09/04 15:18:02;;;;;;;3.38;3.08;;;;;;;;;;5022798;28;20316;-58
2022/09/04 15:20:30;;;;;;;2.50;2.30;;;;;;;;;;5022908;28;20236;-58
2022/09/04 15:22:59;;;;;;;2.78;1.90;;;;;;;;;;5017480;28;20228;-57
2022/09/04 15:25:38;;;;;;;3.03;2.65;;;;;;;;;;5018009;28;20236;-58
2022/09/04 15:28:06;;;;;;;4.65;2.90;;;;;;;;;;5020448;28;20242;-58
2022/09/04 15:30:35;;;;;;;14.23;7.95;;;;;;;;;;5023833;28;20233;-58
2022/09/04 15:33:04;;;;;;;19.27;9.75;;;;;;;;;;5025432;28;20237;-58
2022/09/04 15:35:31;;;;;;;6.88;3.78;;;;;;;;;;5024955;28;20240;-59